Aérodrome :







RETROUVEZ-NOUS SUR...

 
LOGIN :

S'inscrire | Disclaimer

   EN    FR    IT 

 









Légende :    VFR   VFR Marginal   IFR   IFR Intensif   IFR Très Intensif
Visi : 
Plafond : 
>= 8 km
>= 3000ft
5 à 8 km
1000 à 3000 ft
1500m à 5 km
500 à 1000 ft
800 à 1500m
200 à 500 ft
< 800m
< 200 ft
Symboles :   Orages  Brouillard  Fortes neiges  Fortes précipitations  Vent > 20 kt






- Altitude de l'aérodrome : 49 ft


KOWD - Norwood Memorial

DERNIER METAR :
  • 020253Z AUTO 21007KT 10SM FEW060 08/M03 A2972 RMK AO2 SLP064 T00781028 51029

METARs EXPIRÉS :
  • 020153Z AUTO 21010G23KT 10SM SCT050 08/M03 A2971 RMK AO2 PK WND 22028/0133 SLP060 T00831028
  • 020053Z 21009KT 10SM BKN050 09/01 A2966 RMK AO2 SLP044 T00940011

TAF N/A
FIR KZBW / Amérique du Nord



MET'MAP, la Météo Aéronautique d'un coup d'oeil ! - Copyright ORBIFLY Décembre 2007 - Disclaimer

ORBIFLY MET'MAP TEAM :

Programmation & Développement : Alexandra Zaïnal
Sur une idée originale de : Baudouin d'Aumeries
Assistance à la programmation : Marc-Olivier Méhu
Soutien technique & logistique : Manuel Goepfert

Contact : metmap@orbifly.com




SOURCES & CREDITS :

   NOAA